Time;durP1;ratioP1;P1;durP2;ratioP2;P2;SDS_P1;SDS_P2;PMS_P1;PMS_P2;Temp;Humidity;BMP_temperature;BMP_pressure;BME280_temperature;BME280_humidity;BME280_pressure;Samples;Min_cycle;Max_cycle;Signal;HPM_P1;HPM_P2
2021/04/17 00:01:51;;;;;;;6.03;3.90;;;5.30;92.40;;;;;;5071677;28;20075;-78
2021/04/17 00:04:19;;;;;;;5.07;3.30;;;5.20;92.40;;;;;;5071210;28;20123;-77
2021/04/17 00:06:46;;;;;;;5.82;3.63;;;5.20;92.50;;;;;;5075037;28;20168;-79
2021/04/17 00:09:17;;;;;;;5.95;3.85;;;5.20;92.60;;;;;;5092660;28;20080;-79
2021/04/17 00:11:46;;;;;;;5.53;3.83;;;5.20;92.60;;;;;;5091417;28;20048;-77
2021/04/17 00:14:16;;;;;;;6.10;3.78;;;5.10;92.50;;;;;;5072577;28;20139;-77
2021/04/17 00:16:44;;;;;;;5.40;3.63;;;5.10;92.60;;;;;;5072608;28;20060;-79
2021/04/17 00:19:10;;;;;;;7.57;3.72;;;5.10;92.60;;;;;;5072403;28;20114;-78
2021/04/17 00:21:37;;;;;;;6.18;3.45;;;5.10;92.70;;;;;;5072480;28;20045;-77
2021/04/17 00:24:05;;;;;;;6.35;4.00;;;5.00;92.80;;;;;;5072477;28;20528;-79
2021/04/17 00:26:34;;;;;;;6.30;3.80;;;5.00;92.80;;;;;;5072553;28;20481;-77
2021/04/17 00:29:00;;;;;;;7.07;3.97;;;5.00;92.80;;;;;;5087713;28;20048;-78
2021/04/17 00:31:27;;;;;;;8.27;4.53;;;4.90;92.70;;;;;;5073187;28;20147;-77
2021/04/17 00:33:54;;;;;;;6.50;3.92;;;4.90;92.80;;;;;;5072350;28;20142;-77
2021/04/17 00:36:21;;;;;;;5.35;3.65;;;4.90;92.60;;;;;;5072481;28;20102;-78
2021/04/17 00:38:47;;;;;;;6.07;3.90;;;4.80;92.70;;;;;;5073406;28;20159;-79
2021/04/17 00:41:14;;;;;;;6.50;4.00;;;4.70;92.70;;;;;;5072011;28;20076;-78
2021/04/17 00:43:41;;;;;;;5.85;3.67;;;4.60;92.60;;;;;;5072182;28;20084;-78
2021/04/17 00:46:08;;;;;;;6.00;4.00;;;4.60;92.60;;;;;;5072133;28;20158;-78
2021/04/17 00:48:35;;;;;;;5.72;3.70;;;4.40;92.70;;;;;;5078305;28;20075;-77
2021/04/17 00:51:02;;;;;;;6.45;4.25;;;4.30;93.20;;;;;;5092427;28;20091;-77
2021/04/17 00:53:29;;;;;;;8.05;5.07;;;4.20;93.70;;;;;;5092330;28;20150;-77
2021/04/17 00:55:55;;;;;;;8.30;4.90;;;4.20;94.00;;;;;;5092229;28;20131;-77
2021/04/17 00:58:22;;;;;;;8.27;5.13;;;4.10;94.20;;;;;;5090904;28;20110;-78
2021/04/17 01:00:50;;;;;;;6.18;4.03;;;4.20;94.40;;;;;;5072002;28;20331;-78
2021/04/17 01:03:30;;;;;;;6.45;4.10;;;4.20;94.40;;;;;;5071962;28;20135;-76
2021/04/17 01:06:06;;;;;;;6.95;3.85;;;4.20;94.40;;;;;;5071483;28;20140;-78
2021/04/17 01:08:42;;;;;;;7.30;3.97;;;4.20;94.30;;;;;;5088309;28;20493;-77
2021/04/17 01:11:15;;;;;;;7.40;4.10;;;4.20;94.40;;;;;;5071693;28;20128;-76
2021/04/17 01:13:43;;;;;;;6.43;4.15;;;4.20;94.50;;;;;;5071615;28;20585;-77
2021/04/17 01:16:11;;;;;;;6.80;3.97;;;4.20;94.30;;;;;;5071674;28;20080;-76
2021/04/17 01:18:39;;;;;;;7.22;4.45;;;4.30;94.30;;;;;;5072196;28;20139;-78
2021/04/17 01:21:07;;;;;;;6.60;4.40;;;4.20;94.10;;;;;;5089268;28;20075;-77
2021/04/17 01:23:39;;;;;;;7.20;4.57;;;4.20;94.00;;;;;;5091316;28;20134;-79
2021/04/17 01:26:09;;;;;;;8.20;4.82;;;4.20;94.00;;;;;;5091694;28;20062;-78
2021/04/17 01:28:39;;;;;;;7.07;4.20;;;4.10;94.10;;;;;;5091613;28;20177;-78
2021/04/17 01:31:07;;;;;;;6.25;4.35;;;4.10;94.20;;;;;;5090503;28;20127;-77
2021/04/17 01:33:36;;;;;;;6.60;4.53;;;4.00;94.40;;;;;;5073967;28;20044;-78
2021/04/17 01:36:06;;;;;;;7.53;4.78;;;4.00;94.40;;;;;;5071156;28;20080;-78
2021/04/17 01:38:35;;;;;;;7.22;4.82;;;4.00;94.50;;;;;;5072347;28;20485;-77
2021/04/17 01:41:10;;;;;;;7.85;5.22;;;4.00;94.70;;;;;;5082630;28;20079;-79
2021/04/17 01:43:37;;;;;;;6.60;4.88;;;4.00;94.50;;;;;;5091053;28;20083;-78
2021/04/17 01:46:10;;;;;;;7.07;4.80;;;4.00;94.70;;;;;;5091377;28;20056;-77
2021/04/17 01:48:38;;;;;;;8.10;4.90;;;4.00;94.80;;;;;;5091446;28;20136;-78
2021/04/17 01:51:06;;;;;;;7.70;5.15;;;4.00;94.80;;;;;;5081488;28;20132;-77
2021/04/17 01:53:37;;;;;;;7.70;5.07;;;4.00;94.60;;;;;;5070732;28;20048;-79
2021/04/17 01:56:06;;;;;;;7.28;4.70;;;4.00;94.50;;;;;;5070658;28;20064;-78
2021/04/17 01:58:39;;;;;;;7.93;5.00;;;4.00;94.50;;;;;;5071572;28;20141;-77
2021/04/17 02:01:07;;;;;;;6.78;4.50;;;4.00;94.40;;;;;;5076893;28;20155;-77
2021/04/17 02:03:34;;;;;;;6.72;4.60;;;4.00;94.20;;;;;;5090758;28;20162;-77
2021/04/17 02:06:00;;;;;;;7.55;4.60;;;3.90;93.90;;;;;;5090447;28;20055;-78
2021/04/17 02:08:27;;;;;;;7.75;4.97;;;3.80;94.00;;;;;;5078865;28;20135;-77
2021/04/17 02:10:53;;;;;;;7.53;4.68;;;3.70;93.90;;;;;;5072100;28;20147;-77
2021/04/17 02:13:21;;;;;;;7.80;4.57;;;3.60;94.00;;;;;;5091096;28;20083;-77
2021/04/17 02:15:49;;;;;;;7.75;4.90;;;3.50;94.50;;;;;;5090357;28;20075;-76
2021/04/17 02:18:23;;;;;;;6.70;4.38;;;3.50;94.70;;;;;;5090936;28;20048;-78
2021/04/17 02:21:01;;;;;;;7.57;4.70;;;3.40;95.00;;;;;;5090707;28;20044;-76
2021/04/17 02:23:29;;;;;;;8.35;5.40;;;3.40;95.30;;;;;;5070513;28;20060;-76
2021/04/17 02:25:57;;;;;;;8.00;4.85;;;3.40;95.50;;;;;;5087159;28;20530;-77
2021/04/17 02:28:25;;;;;;;8.25;5.22;;;3.40;95.70;;;;;;5090419;28;20143;-78
2021/04/17 02:30:53;;;;;;;7.70;4.80;;;3.50;95.80;;;;;;5089446;28;20899;-77
2021/04/17 02:33:19;;;;;;;7.70;5.10;;;3.50;95.90;;;;;;5074473;28;20041;-79
2021/04/17 02:35:46;;;;;;;8.32;5.53;;;3.50;95.90;;;;;;5070115;28;20080;-77
2021/04/17 02:38:13;;;;;;;7.80;5.32;;;3.60;95.90;;;;;;5070202;28;20080;-78
2021/04/17 02:40:40;;;;;;;8.60;5.38;;;3.70;95.80;;;;;;5070374;28;20072;-77
2021/04/17 02:43:06;;;;;;;8.40;5.57;;;3.80;95.60;;;;;;5081591;28;20083;-78
2021/04/17 02:45:34;;;;;;;7.68;5.00;;;3.70;95.30;;;;;;5089997;28;20642;-79
2021/04/17 02:48:02;;;;;;;8.52;5.50;;;3.80;95.40;;;;;;5090280;28;20087;-78
2021/04/17 02:50:29;;;;;;;8.10;5.65;;;3.70;95.50;;;;;;5090178;28;20079;-78
2021/04/17 02:52:57;;;;;;;7.07;4.88;;;3.80;95.20;;;;;;5088344;28;20556;-77
2021/04/17 02:55:24;;;;;;;7.50;5.22;;;3.70;95.30;;;;;;5090164;28;20144;-77
2021/04/17 02:57:50;;;;;;;8.23;5.38;;;3.70;95.30;;;;;;5082892;28;20076;-78
2021/04/17 03:00:23;;;;;;;8.73;5.20;;;3.70;95.10;;;;;;5070149;28;20472;-76
2021/04/17 03:02:50;;;;;;;9.70;5.93;;;3.60;95.30;;;;;;5073835;28;20044;-79
2021/04/17 03:05:18;;;;;;;10.35;6.70;;;3.70;95.50;;;;;;5090557;28;20083;-77
2021/04/17 03:07:45;;;;;;;8.88;6.05;;;3.70;95.50;;;;;;5089845;28;20087;-78
2021/04/17 03:10:14;;;;;;;9.43;5.85;;;3.70;95.40;;;;;;5090316;28;20048;-78
2021/04/17 03:12:41;;;;;;;9.45;5.78;;;3.60;95.20;;;;;;5087478;28;21050;-77
2021/04/17 03:15:10;;;;;;;9.73;6.15;;;3.60;95.20;;;;;;5081931;28;20418;-76
2021/04/17 03:17:37;;;;;;;8.38;5.72;;;3.60;95.40;;;;;;5071792;28;20395;-77
2021/04/17 03:20:08;;;;;;;9.48;6.30;;;3.60;95.40;;;;;;5070031;28;20049;-78
2021/04/17 03:22:36;;;;;;;8.70;5.90;;;3.60;95.50;;;;;;5070087;28;20451;-77
2021/04/17 03:25:07;;;;;;;10.10;6.03;;;3.60;95.60;;;;;;5083904;28;20071;-77
2021/04/17 03:27:33;;;;;;;10.23;6.35;;;3.60;95.60;;;;;;5089973;28;20095;-77
2021/04/17 03:30:00;;;;;;;9.57;6.32;;;3.60;95.50;;;;;;5093439;28;20123;-76
2021/04/17 03:32:27;;;;;;;8.38;5.90;;;3.60;95.40;;;;;;5093865;28;20079;-77
2021/04/17 03:34:53;;;;;;;7.97;5.45;;;3.60;95.10;;;;;;5082976;28;20064;-76
2021/04/17 03:37:20;;;;;;;8.75;5.65;;;3.60;95.00;;;;;;5075378;28;20395;-77
2021/04/17 03:39:48;;;;;;;10.60;5.90;;;3.60;95.20;;;;;;5073513;28;20087;-76
2021/04/17 03:42:14;;;;;;;8.02;5.63;;;3.50;95.50;;;;;;5073952;28;20091;-79
2021/04/17 03:44:41;;;;;;;9.85;5.95;;;3.50;95.90;;;;;;5083196;28;20162;-77
2021/04/17 03:47:08;;;;;;;9.75;6.40;;;3.50;95.60;;;;;;5091922;28;20044;-77
2021/04/17 03:49:34;;;;;;;10.75;6.70;;;3.50;95.60;;;;;;5075481;28;20131;-79
2021/04/17 03:52:01;;;;;;;10.30;6.55;;;3.60;95.70;;;;;;5073704;28;20083;-77
2021/04/17 03:54:29;;;;;;;10.23;7.03;;;3.50;95.70;;;;;;5074321;28;20147;-77
2021/04/17 03:56:56;;;;;;;11.60;6.63;;;3.60;95.70;;;;;;5073343;28;20088;-77
2021/04/17 03:59:23;;;;;;;10.10;5.97;;;3.60;95.70;;;;;;5073190;28;20599;-77
2021/04/17 04:01:50;;;;;;;10.10;6.80;;;3.60;95.60;;;;;;5073193;28;20080;-78
2021/04/17 04:04:16;;;;;;;10.98;6.47;;;3.60;95.60;;;;;;5074605;28;20056;-79
2021/04/17 04:06:43;;;;;;;10.95;6.57;;;3.60;95.30;;;;;;5072974;28;20135;-76
2021/04/17 04:09:09;;;;;;;10.63;6.75;;;3.60;95.40;;;;;;5072783;28;20087;-77
2021/04/17 04:11:36;;;;;;;10.25;6.55;;;3.60;95.10;;;;;;5072884;28;20140;-78
2021/04/17 04:14:04;;;;;;;10.88;7.25;;;3.50;95.00;;;;;;5076328;28;20050;-77
2021/04/17 04:16:30;;;;;;;10.60;7.22;;;3.40;95.00;;;;;;5093228;28;20122;-78
2021/04/17 04:18:57;;;;;;;11.35;7.25;;;3.30;95.20;;;;;;5093166;28;20082;-76
2021/04/17 04:21:23;;;;;;;10.18;7.05;;;3.20;95.10;;;;;;5091395;28;20570;-77
2021/04/17 04:23:50;;;;;;;11.30;7.43;;;3.10;95.40;;;;;;5090958;28;20119;-76
2021/04/17 04:26:18;;;;;;;11.70;7.35;;;3.00;95.90;;;;;;5072458;28;20072;-76
2021/04/17 04:28:44;;;;;;;11.30;7.35;;;2.90;96.20;;;;;;5072323;28;20143;-78
2021/04/17 04:31:12;;;;;;;12.20;8.30;;;2.90;96.60;;;;;;5072648;28;20449;-78
2021/04/17 04:33:39;;;;;;;12.43;8.23;;;2.90;96.90;;;;;;5072539;28;20076;-79
2021/04/17 04:36:06;;;;;;;10.07;6.70;;;2.90;97.00;;;;;;5088387;28;20135;-78
2021/04/17 04:38:33;;;;;;;10.98;7.65;;;2.90;97.00;;;;;;5072133;28;20444;-77
2021/04/17 04:40:59;;;;;;;12.88;8.38;;;2.90;96.90;;;;;;5090949;28;20100;-78
2021/04/17 04:43:26;;;;;;;13.68;8.88;;;3.00;97.00;;;;;;5092403;28;20054;-76
2021/04/17 04:45:53;;;;;;;12.40;8.13;;;3.10;96.70;;;;;;5074215;28;20080;-78
2021/04/17 04:48:20;;;;;;;14.00;8.98;;;3.10;96.70;;;;;;5072842;28;20080;-76
2021/04/17 04:50:47;;;;;;;11.25;7.85;;;3.10;96.30;;;;;;5092076;28;20048;-77
2021/04/17 04:53:13;;;;;;;11.88;8.10;;;3.10;96.30;;;;;;5087542;28;20044;-82
2021/04/17 04:55:40;;;;;;;11.80;7.70;;;3.00;96.40;;;;;;5074939;28;20053;-80
2021/04/17 04:58:07;;;;;;;13.05;8.13;;;3.00;96.40;;;;;;5075098;28;20455;-78
2021/04/17 05:00:33;;;;;;;11.00;7.53;;;3.00;96.60;;;;;;5074841;28;20088;-78
2021/04/17 05:03:00;;;;;;;12.93;7.90;;;3.00;97.00;;;;;;5074492;28;20440;-79
2021/04/17 05:05:27;;;;;;;13.73;8.60;;;3.10;97.20;;;;;;5088460;28;20084;-79
2021/04/17 05:07:54;;;;;;;13.10;8.27;;;3.10;96.70;;;;;;5085637;28;20417;-78
2021/04/17 05:10:21;;;;;;;11.77;7.85;;;3.10;96.90;;;;;;5079477;28;20048;-77
2021/04/17 05:12:48;;;;;;;13.15;8.80;;;3.10;96.90;;;;;;5088900;28;20044;-78
2021/04/17 05:15:14;;;;;;;12.25;8.10;;;3.20;97.00;;;;;;5081993;28;20159;-77
2021/04/17 05:17:41;;;;;;;12.18;7.78;;;3.30;97.00;;;;;;5085401;28;20076;-78
2021/04/17 05:20:10;;;;;;;12.02;7.97;;;3.40;96.90;;;;;;5094374;28;20540;-79
2021/04/17 05:22:38;;;;;;;13.73;8.60;;;3.40;97.00;;;;;;5094341;28;20139;-78
2021/04/17 05:25:07;;;;;;;12.98;8.32;;;3.50;96.90;;;;;;5082144;28;20470;-78
2021/04/17 05:27:33;;;;;;;12.63;8.23;;;3.50;96.70;;;;;;5073971;28;20044;-77
2021/04/17 05:30:00;;;;;;;12.18;8.32;;;3.50;96.50;;;;;;5078132;28;20045;-78
2021/04/17 05:32:27;;;;;;;12.73;8.48;;;3.60;96.60;;;;;;5086720;28;20450;-78
2021/04/17 05:34:55;;;;;;;14.35;9.13;;;3.60;96.60;;;;;;5074091;28;20057;-76
2021/04/17 05:37:22;;;;;;;13.30;9.02;;;3.70;96.10;;;;;;5076825;28;20044;-77
2021/04/17 05:39:49;;;;;;;12.38;8.13;;;3.70;95.90;;;;;;5063487;28;20052;-78
2021/04/17 05:42:16;;;;;;;11.45;7.78;;;3.60;95.80;;;;;;5090717;28;20094;-77
2021/04/17 05:44:43;;;;;;;13.30;8.95;;;3.60;96.10;;;;;;5073739;28;20044;-79
2021/04/17 05:47:10;;;;;;;11.98;8.18;;;3.60;96.30;;;;;;5079033;28;20135;-79
2021/04/17 05:49:36;;;;;;;13.68;8.60;;;3.60;96.70;;;;;;5081330;28;20082;-77
2021/04/17 05:52:04;;;;;;;13.60;8.80;;;3.70;97.00;;;;;;5077269;28;20462;-77
2021/04/17 05:54:30;;;;;;;13.65;9.07;;;3.70;97.00;;;;;;5075755;28;20076;-77
2021/04/17 05:56:58;;;;;;;15.70;9.40;;;3.80;96.90;;;;;;5083196;28;20143;-77
2021/04/17 05:59:25;;;;;;;13.38;8.68;;;3.90;96.70;;;;;;5068676;28;20541;-76
2021/04/17 06:01:52;;;;;;;13.57;9.20;;;3.90;96.60;;;;;;5091476;28;20409;-78
2021/04/17 06:04:18;;;;;;;13.32;8.80;;;4.00;96.70;;;;;;5085572;28;20088;-79
2021/04/17 06:06:45;;;;;;;14.13;8.73;;;4.10;96.60;;;;;;5074609;28;20048;-78
2021/04/17 06:09:13;;;;;;;14.43;8.80;;;4.20;96.40;;;;;;5081781;28;20083;-77
2021/04/17 06:11:40;;;;;;;12.95;8.98;;;4.30;96.40;;;;;;5086691;28;20068;-77
2021/04/17 06:14:08;;;;;;;13.38;8.90;;;4.30;96.20;;;;;;5073313;28;20152;-79
2021/04/17 06:16:34;;;;;;;15.18;9.38;;;4.50;96.00;;;;;;5074647;28;20087;-78
2021/04/17 06:19:01;;;;;;;14.00;9.15;;;4.50;95.50;;;;;;5082732;28;20135;-76
2021/04/17 06:21:28;;;;;;;14.40;10.23;;;4.60;95.10;;;;;;5072791;28;20567;-77
2021/04/17 06:23:54;;;;;;;13.55;9.10;;;4.60;94.90;;;;;;5082150;28;20131;-76
2021/04/17 06:26:22;;;;;;;13.80;9.70;;;4.50;95.10;;;;;;5076712;28;20048;-77
2021/04/17 06:28:48;;;;;;;13.18;9.40;;;4.50;95.70;;;;;;5075146;28;20075;-77
2021/04/17 06:31:17;;;;;;;13.40;8.35;;;4.50;95.90;;;;;;5085482;28;20128;-78
2021/04/17 06:33:44;;;;;;;13.98;9.40;;;4.60;95.90;;;;;;5090643;28;20093;-76
2021/04/17 06:36:10;;;;;;;13.57;8.90;;;4.60;95.80;;;;;;5085766;28;20080;-77
2021/04/17 06:38:37;;;;;;;14.85;9.45;;;4.70;95.70;;;;;;5083833;28;20128;-77
2021/04/17 06:41:06;;;;;;;15.50;9.00;;;4.80;95.30;;;;;;5079296;28;20137;-78
2021/04/17 06:43:36;;;;;;;13.20;8.93;;;4.80;95.30;;;;;;5084406;28;20088;-78
2021/04/17 06:46:04;;;;;;;13.07;9.07;;;4.80;95.40;;;;;;5072943;28;20463;-77
2021/04/17 06:48:33;;;;;;;13.73;9.35;;;4.80;95.40;;;;;;5073787;28;20528;-78
2021/04/17 06:51:00;;;;;;;13.80;8.90;;;4.80;95.50;;;;;;5073662;28;20084;-78
2021/04/17 06:53:29;;;;;;;13.77;9.00;;;4.90;95.50;;;;;;5072887;28;20076;-76
2021/04/17 06:55:56;;;;;;;14.68;9.20;;;4.90;95.40;;;;;;5077747;28;20049;-78
2021/04/17 06:58:23;;;;;;;14.13;9.38;;;4.90;95.70;;;;;;5076462;28;20086;-76
2021/04/17 07:00:49;;;;;;;15.10;10.02;;;5.10;95.80;;;;;;5072448;28;20076;-76
2021/04/17 07:03:17;;;;;;;15.75;10.27;;;5.20;95.70;;;;;;5085227;28;20044;-76
2021/04/17 07:05:45;;;;;;;15.82;9.77;;;5.30;95.30;;;;;;5082642;28;20098;-75
2021/04/17 07:08:12;;;;;;;14.55;10.20;;;5.40;95.20;;;;;;5091822;28;20458;-76
2021/04/17 07:10:39;;;;;;;13.82;9.63;;;5.50;94.20;;;;;;5079801;28;20056;-77
2021/04/17 07:13:11;;;;;;;14.65;9.75;;;5.40;94.60;;;;;;5076614;28;20075;-77
2021/04/17 07:15:40;;;;;;;15.10;10.43;;;5.50;94.70;;;;;;5076329;28;20131;-77
2021/04/17 07:18:29;;;;;;;15.10;10.07;;;5.60;94.30;;;;;;5086221;28;20134;-78
2021/04/17 07:20:58;;;;;;;14.98;10.25;;;5.70;94.20;;;;;;5096709;28;20503;-78
2021/04/17 07:23:43;;;;;;;15.38;10.75;;;5.60;94.10;;;;;;5096627;28;20066;-78
2021/04/17 07:26:11;;;;;;;14.23;9.75;;;5.70;94.10;;;;;;5096897;28;20127;-78
2021/04/17 07:28:41;;;;;;;14.77;9.75;;;5.80;94.10;;;;;;5090690;28;20414;-78
2021/04/17 07:31:15;;;;;;;14.75;10.00;;;5.80;94.30;;;;;;5082022;28;20044;-76
2021/04/17 07:33:42;;;;;;;15.93;10.57;;;5.90;94.10;;;;;;5082778;28;20144;-76
2021/04/17 07:36:10;;;;;;;16.63;11.32;;;6.00;93.80;;;;;;5079565;28;20137;-77
2021/04/17 07:38:38;;;;;;;17.23;11.18;;;6.10;93.40;;;;;;5082383;28;20132;-77
2021/04/17 07:41:10;;;;;;;15.05;10.27;;;6.20;93.70;;;;;;5081557;28;20063;-78
2021/04/17 07:43:49;;;;;;;16.95;11.13;;;6.20;93.70;;;;;;5075750;28;20560;-78
2021/04/17 07:46:17;;;;;;;17.13;11.45;;;6.40;93.90;;;;;;5076911;28;20080;-78
2021/04/17 07:48:43;;;;;;;16.35;10.75;;;6.50;93.90;;;;;;5076998;28;20137;-78
2021/04/17 07:51:11;;;;;;;15.77;11.50;;;6.50;93.90;;;;;;5076965;28;20080;-77
2021/04/17 07:53:40;;;;;;;17.10;11.23;;;6.70;93.30;;;;;;5084108;28;20120;-78
2021/04/17 07:56:30;;;;;;;17.08;11.57;;;6.70;93.40;;;;;;5092673;28;20490;-78
2021/04/17 07:58:59;;;;;;;19.42;13.00;;;6.80;93.40;;;;;;5087861;28;20131;-79
2021/04/17 08:01:28;;;;;;;18.10;12.32;;;6.90;93.10;;;;;;5072861;28;20045;-76
2021/04/17 08:03:58;;;;;;;17.92;11.93;;;6.90;92.90;;;;;;5073839;28;20087;-77
2021/04/17 08:06:27;;;;;;;16.90;11.77;;;7.00;92.70;;;;;;5072132;28;20056;-77
2021/04/17 08:08:55;;;;;;;18.10;11.63;;;7.00;92.60;;;;;;5075617;28;20156;-77
2021/04/17 08:11:27;;;;;;;15.73;11.63;;;7.00;93.00;;;;;;5085374;28;20481;-78
2021/04/17 08:13:56;;;;;;;19.13;12.30;;;7.10;92.80;;;;;;5088837;28;20048;-78
2021/04/17 08:16:23;;;;;;;20.17;13.65;;;7.10;92.90;;;;;;5076857;28;20068;-78
2021/04/17 08:18:50;;;;;;;18.02;11.68;;;7.20;92.50;;;;;;5085421;28;20044;-78
2021/04/17 08:21:19;;;;;;;16.65;11.10;;;7.20;92.70;;;;;;5074010;28;20406;-78
2021/04/17 08:23:50;;;;;;;16.10;10.70;;;7.20;92.80;;;;;;5071214;28;20087;-77
2021/04/17 08:26:18;;;;;;;17.67;11.55;;;7.30;92.60;;;;;;5079190;28;20445;-78
2021/04/17 08:28:47;;;;;;;17.85;11.40;;;7.40;92.50;;;;;;5077505;28;20049;-78
2021/04/17 08:31:26;;;;;;;16.35;11.35;;;7.40;92.30;;;;;;5072790;28;20127;-76
2021/04/17 08:34:14;;;;;;;14.95;10.18;;;7.50;91.60;;;;;;5072416;28;20048;-75
2021/04/17 08:36:46;;;;;;;15.98;10.35;;;7.50;91.90;;;;;;5080698;28;20047;-75
2021/04/17 08:39:44;;;;;;;15.40;10.85;;;7.60;91.90;;;;;;5091737;28;20135;-78
2021/04/17 08:42:17;;;;;;;15.43;10.23;;;7.70;91.90;;;;;;5091763;28;20462;-76
2021/04/17 08:44:45;;;;;;;17.88;11.40;;;7.60;91.70;;;;;;5086614;28;20048;-76
2021/04/17 08:47:32;;;;;;;15.38;10.38;;;7.70;91.60;;;;;;5087132;28;20539;-78
2021/04/17 08:50:31;;;;;;;13.60;9.05;;;7.80;91.40;;;;;;5095329;28;20150;-77
2021/04/17 08:53:05;;;;;;;13.93;9.85;;;7.80;91.40;;;;;;5083932;28;20497;-76
2021/04/17 08:55:46;;;;;;;15.13;8.93;;;7.90;90.90;;;;;;5074468;28;20083;-76
2021/04/17 08:58:18;;;;;;;12.23;8.15;;;8.10;91.00;;;;;;5074961;28;20123;-76
2021/04/17 09:01:09;;;;;;;12.32;7.90;;;8.20;90.50;;;;;;5074964;28;20490;-75
2021/04/17 09:03:42;;;;;;;11.88;7.78;;;8.30;90.20;;;;;;5074318;28;20118;-75
2021/04/17 09:06:11;;;;;;;12.55;8.23;;;8.40;90.30;;;;;;5075394;28;20052;-77
2021/04/17 09:08:39;;;;;;;15.80;9.27;;;8.60;89.40;;;;;;5074618;28;20123;-78
2021/04/17 09:11:35;;;;;;;12.30;8.77;;;8.70;88.60;;;;;;5084244;28;20068;-78
2021/04/17 09:14:02;;;;;;;12.40;8.98;;;9.00;88.20;;;;;;5077969;28;20036;-76
2021/04/17 09:16:39;;;;;;;11.80;7.75;;;9.10;86.30;;;;;;5078566;28;20079;-79
2021/04/17 09:19:06;;;;;;;12.73;8.43;;;9.20;85.50;;;;;;5094056;28;20071;-77
2021/04/17 09:21:34;;;;;;;15.38;9.13;;;9.30;83.90;;;;;;5075479;28;20055;-78
2021/04/17 09:24:03;;;;;;;10.65;7.38;;;9.40;82.60;;;;;;5073836;28;20053;-78
2021/04/17 09:26:41;;;;;;;11.48;7.85;;;9.30;83.10;;;;;;5073257;28;20092;-79
2021/04/17 09:29:23;;;;;;;12.07;8.00;;;9.50;82.70;;;;;;5074362;28;20040;-78
2021/04/17 09:31:51;;;;;;;14.07;8.75;;;9.50;83.60;;;;;;5074136;28;20055;-77
2021/04/17 09:34:19;;;;;;;13.00;8.52;;;9.60;83.30;;;;;;5074574;28;20094;-77
2021/04/17 09:36:50;;;;;;;13.50;8.27;;;9.70;82.50;;;;;;5079708;28;20124;-77
2021/04/17 09:39:27;;;;;;;13.48;8.43;;;9.60;81.80;;;;;;5081731;28;20127;-78
2021/04/17 09:41:57;;;;;;;14.10;8.25;;;9.60;82.80;;;;;;5077160;28;20047;-79
2021/04/17 09:44:23;;;;;;;13.15;8.20;;;9.70;81.90;;;;;;5084438;28;20051;-79
2021/04/17 09:47:08;;;;;;;11.45;7.40;;;9.80;80.80;;;;;;5079434;28;20072;-78
2021/04/17 09:49:41;;;;;;;10.73;6.35;;;9.70;80.80;;;;;;5082480;28;20052;-78
2021/04/17 09:52:08;;;;;;;10.45;6.70;;;9.90;78.60;;;;;;5080879;28;20077;-77
2021/04/17 09:54:35;;;;;;;10.25;6.25;;;9.90;78.10;;;;;;5083097;28;20071;-78
2021/04/17 09:57:08;;;;;;;9.43;6.30;;;9.90;77.20;;;;;;5083641;28;20076;-77
2021/04/17 09:59:35;;;;;;;11.18;6.80;;;9.90;78.10;;;;;;5073083;28;20052;-78
2021/04/17 10:02:03;;;;;;;11.15;7.22;;;9.90;78.50;;;;;;5082263;28;20462;-77
2021/04/17 10:04:51;;;;;;;11.35;6.55;;;10.00;78.40;;;;;;5076982;28;20135;-77
2021/04/17 10:07:18;;;;;;;10.90;7.60;;;10.00;78.90;;;;;;5075151;28;20048;-78
2021/04/17 10:10:03;;;;;;;10.55;6.70;;;10.10;76.80;;;;;;5085059;28;20083;-79
2021/04/17 10:12:31;;;;;;;10.70;6.95;;;10.20;77.20;;;;;;5076646;28;20045;-79
2021/04/17 10:15:22;;;;;;;21.52;12.80;;;10.30;76.20;;;;;;5082614;28;20083;-77
2021/04/17 10:17:52;;;;;;;11.25;7.28;;;10.50;76.30;;;;;;5076966;28;20076;-76
2021/04/17 10:20:20;;;;;;;12.82;8.52;;;10.50;75.60;;;;;;5075815;28;20048;-80
2021/04/17 10:22:53;;;;;;;10.32;6.70;;;10.60;74.90;;;;;;5073327;28;20080;-77
2021/04/17 10:25:40;;;;;;;10.38;6.75;;;10.70;72.10;;;;;;5073339;28;20087;-77
2021/04/17 10:28:15;;;;;;;9.38;6.00;;;10.70;72.40;;;;;;5073221;28;20052;-77
2021/04/17 10:30:44;;;;;;;9.15;6.15;;;10.70;72.60;;;;;;5073119;28;20065;-76
2021/04/17 10:33:19;;;;;;;8.70;5.60;;;10.70;71.70;;;;;;5073203;28;20088;-77
2021/04/17 10:35:46;;;;;;;9.30;6.30;;;10.80;71.30;;;;;;5073127;28;20060;-77
2021/04/17 10:38:24;;;;;;;8.05;5.53;;;10.90;70.50;;;;;;5072960;28;20100;-77
2021/04/17 10:40:51;;;;;;;9.27;5.55;;;11.00;70.30;;;;;;5073573;28;20044;-77
2021/04/17 10:43:25;;;;;;;8.73;5.65;;;11.00;68.90;;;;;;5072787;28;20099;-78
2021/04/17 10:46:00;;;;;;;7.47;5.20;;;11.10;68.00;;;;;;5090550;28;20481;-78
2021/04/17 10:48:29;;;;;;;8.90;5.28;;;11.10;68.50;;;;;;5093396;28;20086;-78
2021/04/17 10:51:02;;;;;;;8.93;5.40;;;11.10;68.00;;;;;;5093450;28;20055;-77
2021/04/17 10:53:31;;;;;;;8.63;5.13;;;11.10;67.90;;;;;;5093065;28;20478;-77
2021/04/17 10:56:01;;;;;;;7.75;5.20;;;11.10;67.60;;;;;;5092925;28;20068;-78
2021/04/17 10:58:32;;;;;;;9.10;5.97;;;11.20;67.40;;;;;;5093201;28;20079;-76
2021/04/17 11:01:01;;;;;;;9.00;5.50;;;11.30;66.00;;;;;;5093523;28;20122;-78
2021/04/17 11:03:30;;;;;;;11.15;6.47;;;11.20;65.40;;;;;;5092917;28;20087;-78
2021/04/17 11:05:58;;;;;;;8.90;5.90;;;11.30;64.90;;;;;;5092922;28;20048;-78
2021/04/17 11:08:28;;;;;;;9.93;6.43;;;11.20;64.00;;;;;;5092660;28;20127;-76
2021/04/17 11:10:55;;;;;;;9.95;5.68;;;11.30;62.90;;;;;;5092984;28;20051;-76
2021/04/17 11:13:31;;;;;;;8.23;5.72;;;11.20;63.10;;;;;;5092998;28;20130;-78
2021/04/17 11:15:58;;;;;;;9.50;5.80;;;11.20;64.60;;;;;;5090723;28;20080;-76
2021/04/17 11:18:32;;;;;;;7.80;4.90;;;11.10;64.60;;;;;;5092731;28;20079;-76
2021/04/17 11:21:00;;;;;;;10.20;5.45;;;11.20;64.80;;;;;;5092695;28;20044;-77
2021/04/17 11:23:47;;;;;;;7.80;5.20;;;11.30;64.60;;;;;;5092782;28;20131;-78
2021/04/17 11:26:18;;;;;;;9.25;5.18;;;11.30;64.50;;;;;;5092931;28;20143;-77
2021/04/17 11:28:47;;;;;;;10.18;5.32;;;11.30;64.20;;;;;;5092674;28;20248;-77
2021/04/17 11:31:19;;;;;;;9.65;5.78;;;11.30;63.20;;;;;;5092667;28;20112;-78
2021/04/17 11:33:48;;;;;;;17.33;9.80;;;11.30;61.90;;;;;;5092803;28;20139;-77
2021/04/17 11:36:15;;;;;;;8.38;5.10;;;11.30;61.90;;;;;;5092344;28;20548;-76
2021/04/17 11:38:42;;;;;;;9.02;5.45;;;11.30;62.90;;;;;;5092799;28;20547;-77
2021/04/17 11:41:08;;;;;;;7.90;5.35;;;11.40;61.70;;;;;;5091526;28;20124;-77
2021/04/17 11:43:35;;;;;;;8.00;5.03;;;11.50;62.00;;;;;;5092191;28;20083;-76
2021/04/17 11:46:03;;;;;;;7.45;4.72;;;11.60;61.30;;;;;;5092716;28;20079;-76
2021/04/17 11:48:29;;;;;;;7.53;4.35;;;11.60;60.70;;;;;;5092651;28;20091;-76
2021/04/17 11:50:56;;;;;;;7.68;4.65;;;11.60;60.80;;;;;;5096225;28;20145;-77
2021/04/17 11:53:23;;;;;;;6.97;4.60;;;11.70;60.70;;;;;;5096165;28;20074;-78
2021/04/17 11:55:51;;;;;;;6.90;4.20;;;11.80;60.00;;;;;;5096613;28;20079;-78
2021/04/17 11:58:19;;;;;;;7.55;4.43;;;11.90;59.80;;;;;;5096274;28;20109;-79
2021/04/17 12:00:45;;;;;;;7.10;4.30;;;12.00;58.50;;;;;;5096349;28;20091;-76
2021/04/17 12:03:20;;;;;;;6.57;4.32;;;11.90;58.60;;;;;;5095840;28;20555;-79
2021/04/17 12:05:47;;;;;;;6.38;4.32;;;11.80;59.10;;;;;;5096293;28;20055;-77
2021/04/17 12:08:13;;;;;;;6.15;3.97;;;11.90;59.00;;;;;;5095921;28;20087;-78
2021/04/17 12:10:40;;;;;;;6.35;4.18;;;11.80;59.00;;;;;;5068183;28;20110;-78
2021/04/17 12:13:07;;;;;;;8.73;4.65;;;11.90;59.30;;;;;;5077116;28;20060;-78
2021/04/17 12:15:33;;;;;;;7.15;3.85;;;11.80;58.80;;;;;;5091295;28;20214;-78
2021/04/17 12:18:00;;;;;;;7.00;4.30;;;12.00;59.30;;;;;;5077622;28;20398;-79
2021/04/17 12:20:28;;;;;;;7.07;4.18;;;11.80;59.50;;;;;;5081744;28;20405;-77
2021/04/17 12:22:55;;;;;;;7.25;4.07;;;12.00;58.70;;;;;;5085672;28;20063;-78
2021/04/17 12:25:23;;;;;;;5.57;3.72;;;12.10;58.60;;;;;;5083862;28;20044;-76
2021/04/17 12:27:50;;;;;;;7.95;4.55;;;12.20;59.40;;;;;;5086063;28;20072;-76
2021/04/17 12:30:19;;;;;;;5.50;3.80;;;12.40;56.50;;;;;;5083485;28;20123;-76
2021/04/17 12:32:46;;;;;;;7.05;3.78;;;12.40;57.60;;;;;;5078453;28;20137;-76
2021/04/17 12:35:15;;;;;;;8.00;4.28;;;12.70;58.00;;;;;;5093711;28;20076;-75
2021/04/17 12:37:43;;;;;;;7.03;4.22;;;13.00;56.50;;;;;;5087514;28;20436;-80
2021/04/17 12:40:12;;;;;;;6.68;4.20;;;13.20;55.80;;;;;;5078040;28;20048;-79
2021/04/17 12:42:40;;;;;;;6.45;4.13;;;13.30;54.60;;;;;;5079216;28;20145;-78
2021/04/17 12:45:10;;;;;;;8.82;5.60;;;13.30;53.90;;;;;;5092615;28;20094;-78
2021/04/17 12:47:38;;;;;;;7.20;4.90;;;13.30;54.40;;;;;;5083935;28;20040;-77
2021/04/17 12:50:06;;;;;;;8.10;4.47;;;13.20;53.10;;;;;;5094386;28;20446;-77
2021/04/17 12:52:33;;;;;;;8.20;4.20;;;13.20;53.60;;;;;;5080965;28;20048;-77
2021/04/17 12:55:01;;;;;;;8.52;4.60;;;13.10;53.10;;;;;;5092789;28;20040;-78
2021/04/17 12:57:28;;;;;;;8.88;4.90;;;12.80;53.40;;;;;;5089142;28;20113;-78
2021/04/17 12:59:54;;;;;;;6.32;4.45;;;12.70;53.80;;;;;;5092092;28;20072;-77